Terminal Aerodrome Forecast
Issued by NWS

Home | Current Version | Previous Version | Text Only | Print | Product List | Glossary On
Versions: 1 2 3 4 5 6 7 8 9 10 11 12 13 14 15 16 17 18 19 20 21 22 23 24 25 26
351
FTUS43 KPAH 071910 AAA
TAFOWB
TAF AMD
KOWB 071910Z 0719/0818 22016G25KT P6SM BKN200
     FM080000 25007KT P6SM SCT050 OVC100
     FM081200 28008KT P6SM OVC025
     FM081400 28012G20KT P6SM OVC025 PROB30 0814/0818 -SN=

USA.gov is the U.S. government's official web portal to all federal, state and local government web resources and services.